Time;durP1;ratioP1;P1;durP2;ratioP2;P2;SDS_P1;SDS_P2;PMS_P1;PMS_P2;Temp;Humidity;BMP_temperature;BMP_pressure;BME280_temperature;BME280_humidity;BME280_pressure;Samples;Min_cycle;Max_cycle;Signal;HPM_P1;HPM_P2
2022/01/22 00:01:15;;;;;;;16.65;3.15;;;6.70;99.90;;;;;;5027894;28;20025;-87
2022/01/22 00:03:41;;;;;;;12.88;2.70;;;6.70;99.90;;;;;;5023427;28;20148;-90
2022/01/22 00:06:08;;;;;;;11.02;3.13;;;6.70;99.90;;;;;;5012715;28;20527;-86
2022/01/22 00:08:34;;;;;;;14.93;2.45;;;6.70;99.90;;;;;;5023046;28;20062;-87
2022/01/22 00:11:02;;;;;;;12.63;2.88;;;6.70;99.90;;;;;;5012214;28;20523;-88
2022/01/22 00:16:16;;;;;;;14.73;2.97;;;6.70;99.90;;;;;;5014780;28;20092;-87
2022/01/22 00:18:42;;;;;;;12.25;2.63;;;6.70;99.90;;;;;;5031055;28;20030;-89
2022/01/22 00:21:08;;;;;;;13.82;3.05;;;6.70;99.90;;;;;;5039458;28;20026;-87
2022/01/22 00:23:37;;;;;;;14.23;3.35;;;6.70;99.90;;;;;;5003615;28;20030;-87
2022/01/22 00:26:03;;;;;;;15.88;3.20;;;6.70;99.90;;;;;;5017289;28;20049;-87
2022/01/22 00:28:28;;;;;;;12.02;3.30;;;6.70;99.90;;;;;;4996312;28;20129;-87
2022/01/22 00:30:54;;;;;;;11.15;3.28;;;6.70;99.90;;;;;;5028432;28;20018;-87
2022/01/22 00:33:20;;;;;;;12.25;2.90;;;6.70;99.90;;;;;;5000078;28;20416;-87
2022/01/22 00:35:46;;;;;;;8.45;3.08;;;6.70;99.90;;;;;;5015078;28;20029;-88
2022/01/22 00:38:13;;;;;;;11.52;2.88;;;6.60;99.90;;;;;;5020341;28;20456;-87
2022/01/22 00:40:39;;;;;;;12.30;3.35;;;6.60;99.90;;;;;;5042892;28;20044;-87
2022/01/22 00:43:04;;;;;;;13.32;3.60;;;6.70;99.90;;;;;;5039123;28;20017;-87
2022/01/22 00:45:30;;;;;;;13.15;3.17;;;6.70;99.90;;;;;;5016145;28;20646;-88
2022/01/22 00:47:56;;;;;;;13.00;3.40;;;6.70;99.90;;;;;;5012981;28;20109;-87
2022/01/22 00:50:24;;;;;;;16.48;4.30;;;6.70;99.90;;;;;;5035750;28;20153;-87
2022/01/22 00:52:51;;;;;;;12.77;4.53;;;6.70;99.90;;;;;;5036213;28;20139;-87
2022/01/22 00:55:17;;;;;;;14.30;4.28;;;6.70;99.90;;;;;;5034071;28;20018;-87
2022/01/22 00:57:45;;;;;;;13.85;3.70;;;6.70;99.90;;;;;;5021837;28;20476;-87
2022/01/22 01:00:14;;;;;;;13.15;4.35;;;6.70;99.90;;;;;;5032269;28;20025;-87
2022/01/22 01:02:40;;;;;;;17.13;4.25;;;6.70;99.90;;;;;;5028195;28;20026;-87
2022/01/22 01:05:08;;;;;;;20.73;4.90;;;6.60;99.90;;;;;;5011858;28;20030;-87
2022/01/22 01:07:34;;;;;;;11.48;4.00;;;6.70;99.90;;;;;;5027144;28;20060;-87
2022/01/22 01:10:00;;;;;;;17.58;4.60;;;6.60;99.90;;;;;;5020588;28;20476;-87
2022/01/22 01:12:26;;;;;;;14.10;3.90;;;6.70;99.90;;;;;;5012404;28;20084;-87
2022/01/22 01:15:10;;;;;;;10.60;3.40;;;6.70;99.90;;;;;;5016413;28;20030;-87
2022/01/22 01:34:01;;;;;;;13.05;3.95;;;6.70;99.90;;;;;;5023083;28;20172;-88
2022/01/22 01:36:29;;;;;;;15.30;3.38;;;6.70;99.90;;;;;;5015592;28;20112;-87
2022/01/22 01:38:59;;;;;;;15.68;4.13;;;6.70;99.90;;;;;;5019963;28;20049;-88
2022/01/22 01:44:03;;;;;;;15.05;3.83;;;6.60;99.90;;;;;;5026155;28;20388;-86
2022/01/22 01:46:31;;;;;;;23.02;6.95;;;6.70;99.90;;;;;;5018728;28;20495;-87
2022/01/22 01:48:58;;;;;;;11.75;3.67;;;6.70;99.90;;;;;;5010730;28;20030;-86
2022/01/22 01:51:26;;;;;;;14.73;4.35;;;6.60;99.90;;;;;;5011596;28;20026;-87
2022/01/22 01:54:03;;;;;;;16.35;4.78;;;6.70;99.90;;;;;;5025016;28;20092;-87
2022/01/22 01:59:16;;;;;;;19.48;5.35;;;6.70;99.90;;;;;;5008913;28;20128;-87
2022/01/22 02:01:42;;;;;;;17.63;5.00;;;6.70;99.90;;;;;;5029988;28;20060;-86
2022/01/22 02:04:11;;;;;;;27.63;6.47;;;6.60;99.90;;;;;;5025503;28;20373;-87
2022/01/22 02:06:37;;;;;;;17.65;5.25;;;6.60;99.90;;;;;;5016039;28;20133;-87
2022/01/22 02:09:07;;;;;;;21.65;6.13;;;6.60;99.90;;;;;;5041313;28;20041;-87
2022/01/22 02:11:38;;;;;;;17.50;5.25;;;6.70;99.90;;;;;;5021998;28;20462;-87
2022/01/22 02:25:03;;;;;;;14.75;5.90;;;6.60;99.90;;;;;;5019965;28;20044;-87
2022/01/22 02:27:28;;;;;;;23.80;6.80;;;6.60;99.90;;;;;;5002027;28;20034;-87
2022/01/22 02:29:54;;;;;;;17.02;6.30;;;6.60;99.90;;;;;;5033881;28;20033;-87
2022/01/22 02:32:53;;;;;;;15.07;5.95;;;6.60;99.90;;;;;;5019213;28;20034;-88
2022/01/22 02:35:30;;;;;;;21.10;6.30;;;6.60;99.90;;;;;;5029323;28;20399;-87
2022/01/22 02:38:05;;;;;;;12.88;6.38;;;6.70;99.90;;;;;;5015889;28;20021;-88
2022/01/22 02:40:41;;;;;;;26.52;7.45;;;6.70;99.90;;;;;;5017283;28;20183;-88
2022/01/22 02:43:09;;;;;;;14.60;6.63;;;6.70;99.90;;;;;;5002551;28;20026;-88
2022/01/22 02:45:35;;;;;;;18.40;7.13;;;6.70;99.90;;;;;;5028874;28;20033;-88
2022/01/22 02:48:01;;;;;;;14.15;5.88;;;6.70;99.90;;;;;;5011260;28;20160;-88
2022/01/22 02:50:26;;;;;;;21.80;6.90;;;6.70;99.90;;;;;;5013348;28;20037;-87
2022/01/22 02:52:52;;;;;;;20.33;7.30;;;6.70;99.90;;;;;;4991200;28;20026;-89
2022/01/22 02:55:18;;;;;;;14.80;6.45;;;6.80;99.90;;;;;;4999443;28;20026;-88
2022/01/22 02:57:45;;;;;;;14.77;6.38;;;6.70;99.90;;;;;;5013187;28;20384;-87
2022/01/22 03:00:16;;;;;;;20.13;7.07;;;6.70;99.90;;;;;;5034511;28;20022;-87
2022/01/22 03:02:42;;;;;;;26.35;9.15;;;6.70;99.90;;;;;;5020060;28;20029;-88
2022/01/22 03:05:09;;;;;;;23.85;7.60;;;6.70;99.90;;;;;;5007454;28;20034;-88
2022/01/22 03:07:36;;;;;;;20.92;7.88;;;6.70;99.90;;;;;;5018739;28;20057;-88
2022/01/22 03:10:06;;;;;;;20.15;7.78;;;6.70;99.90;;;;;;5037851;28;20555;-88
2022/01/22 03:18:05;;;;;;;18.60;7.72;;;6.80;99.90;;;;;;5017757;28;20071;-88
2022/01/22 03:27:20;;;;;;;22.42;8.25;;;6.80;99.90;;;;;;5025881;28;20030;-88
2022/01/22 03:29:02;;;;;;;18.10;8.07;;;6.70;99.90;;;;;;5017191;28;20044;-88
2022/01/22 03:31:28;;;;;;;11.75;5.82;;;6.80;99.90;;;;;;5035168;28;20021;-87
2022/01/22 03:33:54;;;;;;;20.25;7.97;;;6.80;99.90;;;;;;5019165;28;20125;-89
2022/01/22 03:36:20;;;;;;;22.38;7.22;;;6.80;99.90;;;;;;5035811;28;20033;-88
2022/01/22 03:38:47;;;;;;;20.13;6.72;;;6.80;99.90;;;;;;5031272;28;20452;-90
2022/01/22 03:41:13;;;;;;;17.23;7.05;;;6.80;99.90;;;;;;5017288;28;20036;-88
2022/01/22 03:43:39;;;;;;;18.90;6.75;;;6.80;99.90;;;;;;5023969;28;20033;-87
2022/01/22 03:46:05;;;;;;;14.88;6.38;;;6.80;99.90;;;;;;5016901;28;20038;-88
2022/01/22 03:48:31;;;;;;;23.17;8.23;;;6.80;99.90;;;;;;5017152;28;20022;-88
2022/01/22 03:50:56;;;;;;;19.75;7.20;;;6.90;99.90;;;;;;5002766;28;20030;-88
2022/01/22 03:53:22;;;;;;;14.55;6.03;;;6.90;99.90;;;;;;5006236;28;20068;-88
2022/01/22 03:56:03;;;;;;;18.70;6.97;;;6.90;99.90;;;;;;5017162;28;20455;-88
2022/01/22 03:58:31;;;;;;;20.00;6.88;;;6.90;99.90;;;;;;5032339;28;20068;-88
2022/01/22 04:03:46;;;;;;;19.50;7.40;;;6.90;99.90;;;;;;5002306;28;20041;-87
2022/01/22 04:06:54;;;;;;;19.92;8.50;;;6.90;99.90;;;;;;5012940;28;20041;-87
2022/01/22 04:09:13;;;;;;;23.85;7.22;;;6.90;99.90;;;;;;5017712;28;20053;-87
2022/01/22 04:11:42;;;;;;;19.83;7.28;;;6.90;99.90;;;;;;5026070;28;20029;-87
2022/01/22 04:14:15;;;;;;;15.45;6.88;;;6.90;99.90;;;;;;5023403;28;20067;-88
2022/01/22 04:17:02;;;;;;;20.83;7.93;;;6.80;99.90;;;;;;5012213;28;20030;-87
2022/01/22 04:24:57;;;;;;;14.00;7.30;;;6.80;99.90;;;;;;5025255;28;20045;-88
2022/01/22 04:27:24;;;;;;;17.70;6.95;;;6.90;99.90;;;;;;5023188;28;20037;-87
2022/01/22 04:29:51;;;;;;;19.67;7.22;;;6.90;99.90;;;;;;5006453;28;20384;-88
2022/01/22 04:32:17;;;;;;;16.30;6.75;;;6.90;99.90;;;;;;5035088;28;20040;-87
2022/01/22 04:34:43;;;;;;;18.25;8.10;;;6.80;99.90;;;;;;5019287;28;20700;-87
2022/01/22 04:37:09;;;;;;;18.38;7.32;;;6.90;99.90;;;;;;5021032;28;20030;-88
2022/01/22 04:39:36;;;;;;;14.93;6.53;;;6.90;99.90;;;;;;5018269;28;20026;-87
2022/01/22 04:42:03;;;;;;;20.05;6.25;;;7.00;99.90;;;;;;5028631;28;20025;-88
2022/01/22 04:44:38;;;;;;;17.02;6.50;;;6.90;99.90;;;;;;5019079;28;20057;-88
2022/01/22 04:55:02;;;;;;;12.98;6.43;;;7.00;99.90;;;;;;5019900;28;20393;-87
2022/01/22 04:57:30;;;;;;;15.20;7.03;;;6.90;99.90;;;;;;5016120;28;20025;-91
2022/01/22 04:59:56;;;;;;;13.48;6.15;;;7.00;99.90;;;;;;4995962;28;20041;-88
2022/01/22 05:02:22;;;;;;;19.92;6.88;;;6.90;99.90;;;;;;5032155;28;20034;-88
2022/01/22 05:04:48;;;;;;;19.23;6.15;;;7.00;99.90;;;;;;5035685;28;20030;-87
2022/01/22 05:07:14;;;;;;;16.92;6.30;;;7.00;99.90;;;;;;5019973;28;20129;-87
2022/01/22 05:09:40;;;;;;;19.73;6.03;;;7.00;99.90;;;;;;4999222;28;20137;-87
2022/01/22 05:12:06;;;;;;;15.68;5.70;;;7.00;99.90;;;;;;5015586;28;20104;-88
2022/01/22 05:14:33;;;;;;;17.30;5.75;;;7.00;99.90;;;;;;5025476;28;20030;-88
2022/01/22 05:17:02;;;;;;;19.63;5.45;;;7.00;99.90;;;;;;5027713;28;20080;-88
2022/01/22 05:19:43;;;;;;;17.85;5.70;;;7.00;99.90;;;;;;5006900;28;20033;-89
2022/01/22 05:25:23;;;;;;;17.77;6.05;;;7.00;99.90;;;;;;5005178;28;20132;-87
2022/01/22 05:38:21;;;;;;;11.43;5.22;;;7.00;99.90;;;;;;5014428;28;20131;-88
2022/01/22 05:40:47;;;;;;;13.93;4.85;;;7.00;99.90;;;;;;5018036;28;20061;-87
2022/01/22 05:43:13;;;;;;;14.68;4.63;;;7.00;99.90;;;;;;5016461;28;20040;-87
2022/01/22 05:45:38;;;;;;;14.38;4.93;;;7.00;99.90;;;;;;5033808;28;20025;-87
2022/01/22 05:48:04;;;;;;;13.88;5.20;;;7.00;99.90;;;;;;5022919;28;20136;-88
2022/01/22 05:50:34;;;;;;;12.82;4.65;;;7.00;99.90;;;;;;5025784;28;20034;-87
2022/01/22 05:53:06;;;;;;;14.50;5.60;;;7.00;99.90;;;;;;5019799;28;20041;-87
2022/01/22 06:00:53;;;;;;;20.77;6.50;;;7.00;99.90;;;;;;5047633;28;20064;-89
2022/01/22 06:03:19;;;;;;;18.02;6.00;;;7.00;99.90;;;;;;5050825;28;20010;-94
2022/01/22 06:05:45;;;;;;;18.08;6.10;;;7.00;99.90;;;;;;5031606;28;20039;-92
2022/01/22 06:08:15;;;;;;;17.20;5.80;;;7.00;99.90;;;;;;5039612;28;20022;-92
2022/01/22 06:10:41;;;;;;;15.53;6.20;;;7.00;99.90;;;;;;5015099;28;20093;-89
2022/01/22 06:13:20;;;;;;;15.73;6.70;;;7.00;99.90;;;;;;5044836;28;20284;-87
2022/01/22 06:15:45;;;;;;;15.77;6.20;;;7.00;99.90;;;;;;5032090;28;20083;-87
2022/01/22 06:18:12;;;;;;;13.50;5.75;;;7.00;99.90;;;;;;5001957;28;20029;-87
2022/01/22 06:20:37;;;;;;;18.90;6.57;;;7.00;99.90;;;;;;5018688;28;20030;-87
2022/01/22 06:23:03;;;;;;;17.77;6.45;;;7.00;99.90;;;;;;5002893;28;20040;-88
2022/01/22 06:25:29;;;;;;;18.65;7.47;;;7.00;99.90;;;;;;4986573;28;20040;-88
2022/01/22 06:27:55;;;;;;;18.42;6.43;;;7.00;99.90;;;;;;5040227;28;20047;-87
2022/01/22 06:30:21;;;;;;;20.85;6.72;;;7.00;99.90;;;;;;5014333;28;20485;-86
2022/01/22 06:32:47;;;;;;;16.65;6.90;;;7.00;99.90;;;;;;5018132;28;20076;-87
2022/01/22 06:35:13;;;;;;;17.80;7.10;;;7.00;99.90;;;;;;5014968;28;20030;-86
2022/01/22 06:37:38;;;;;;;17.80;7.20;;;7.00;99.90;;;;;;5025051;28;20042;-86
2022/01/22 06:42:31;;;;;;;17.98;7.20;;;7.00;99.90;;;;;;5025323;28;20052;-86
2022/01/22 06:44:58;;;;;;;19.90;8.10;;;7.00;99.90;;;;;;5017486;28;20392;-87
2022/01/22 06:47:25;;;;;;;23.02;7.60;;;7.00;99.90;;;;;;5029834;28;20038;-86
2022/01/22 06:49:52;;;;;;;17.85;7.53;;;7.00;99.90;;;;;;5037256;28;20029;-88
2022/01/22 06:52:17;;;;;;;20.65;8.20;;;7.00;99.90;;;;;;5034720;28;20100;-86
2022/01/22 06:54:44;;;;;;;21.05;7.57;;;7.00;99.90;;;;;;5018152;28;20456;-86
2022/01/22 06:57:10;;;;;;;15.43;8.60;;;7.00;99.90;;;;;;5024474;28;20053;-86
2022/01/22 06:59:36;;;;;;;21.85;8.00;;;7.00;99.90;;;;;;5017928;28;20032;-87
2022/01/22 07:02:05;;;;;;;24.80;8.68;;;7.00;99.90;;;;;;5017037;28;20116;-89
2022/01/22 07:04:37;;;;;;;22.05;8.73;;;7.00;99.90;;;;;;4999997;28;20477;-87
2022/01/22 07:07:09;;;;;;;15.30;7.65;;;7.10;99.90;;;;;;5024143;28;20041;-86
2022/01/22 07:09:36;;;;;;;21.42;8.32;;;7.10;99.90;;;;;;5038063;28;20038;-87
2022/01/22 07:12:03;;;;;;;26.45;8.63;;;7.00;99.90;;;;;;5022326;28;20032;-86
2022/01/22 07:14:29;;;;;;;25.60;8.43;;;7.10;99.90;;;;;;5014466;28;20029;-87
2022/01/22 07:16:55;;;;;;;21.08;9.02;;;7.10;99.90;;;;;;5018217;28;20030;-87
2022/01/22 07:19:21;;;;;;;19.05;9.55;;;7.10;99.90;;;;;;5032452;28;20025;-87
2022/01/22 07:21:57;;;;;;;22.83;9.00;;;7.10;99.90;;;;;;5029525;28;20100;-86
2022/01/22 07:24:23;;;;;;;19.00;8.32;;;7.10;99.90;;;;;;5022942;28;20022;-86
2022/01/22 07:26:55;;;;;;;20.60;8.48;;;7.10;99.90;;;;;;5022486;28;20076;-87
2022/01/22 07:29:22;;;;;;;27.85;9.65;;;7.10;99.90;;;;;;5017327;28;20033;-87
2022/01/22 07:31:52;;;;;;;20.55;9.07;;;7.10;99.90;;;;;;5013056;28;20021;-87
2022/01/22 07:34:17;;;;;;;13.63;8.02;;;7.20;99.90;;;;;;5022547;28;20072;-86
2022/01/22 07:36:43;;;;;;;16.23;7.90;;;7.20;99.90;;;;;;5030459;28;20442;-87
2022/01/22 07:39:09;;;;;;;20.33;7.20;;;7.20;99.90;;;;;;5028434;28;20514;-86
2022/01/22 07:41:35;;;;;;;16.70;7.32;;;7.20;99.90;;;;;;5043584;28;20479;-86
2022/01/22 07:44:00;;;;;;;12.25;6.10;;;7.20;99.90;;;;;;4997951;28;20448;-87
2022/01/22 07:46:27;;;;;;;15.98;6.90;;;7.20;99.90;;;;;;4998869;28;20050;-88
2022/01/22 07:48:53;;;;;;;16.52;6.05;;;7.20;99.90;;;;;;5017858;28;20026;-88
2022/01/22 07:51:18;;;;;;;12.15;6.18;;;7.20;99.90;;;;;;5013151;28;20026;-89
2022/01/22 07:53:45;;;;;;;15.73;6.00;;;7.20;99.90;;;;;;5016269;28;20084;-89
2022/01/22 07:56:14;;;;;;;18.20;6.00;;;7.30;99.90;;;;;;5029086;28;20391;-87
2022/01/22 07:58:40;;;;;;;18.27;5.95;;;7.30;99.90;;;;;;5027408;28;20049;-88
2022/01/22 08:01:06;;;;;;;18.30;5.45;;;7.30;99.90;;;;;;5028190;28;20049;-87
2022/01/22 08:03:32;;;;;;;20.58;6.03;;;7.30;99.90;;;;;;5019490;28;20409;-87
2022/01/22 08:05:57;;;;;;;16.40;6.20;;;7.30;99.90;;;;;;5033685;28;20030;-87
2022/01/22 08:08:23;;;;;;;15.10;5.15;;;7.30;99.90;;;;;;5018585;28;20383;-86
2022/01/22 08:10:49;;;;;;;13.68;5.05;;;7.30;99.90;;;;;;5009484;28;20054;-87
2022/01/22 08:13:33;;;;;;;13.73;5.68;;;7.40;99.90;;;;;;5075926;27;1309581;-85
2022/01/22 08:15:58;;;;;;;11.82;5.28;;;7.40;99.90;;;;;;5075624;28;20400;-85
2022/01/22 08:18:24;;;;;;;19.92;5.90;;;7.30;99.90;;;;;;5072183;28;20027;-86
2022/01/22 08:20:51;;;;;;;11.60;5.32;;;7.40;99.90;;;;;;5062257;28;20098;-86
2022/01/22 08:23:17;;;;;;;13.95;5.32;;;7.40;99.90;;;;;;5074129;28;20054;-85
2022/01/22 08:25:46;;;;;;;19.40;5.47;;;7.40;99.90;;;;;;5091474;28;20028;-86
2022/01/22 08:28:54;;;;;;;16.65;5.38;;;7.40;99.90;;;;;;5086097;28;20015;-88
2022/01/22 08:31:16;;;;;;;14.93;6.55;;;7.40;99.90;;;;;;5089583;28;20361;-86
2022/01/22 08:36:26;;;;;;;16.05;5.30;;;7.40;99.90;;;;;;5092383;28;20042;-85
2022/01/22 08:38:52;;;;;;;17.17;6.47;;;7.40;99.90;;;;;;5085116;28;20412;-85
2022/01/22 08:41:17;;;;;;;12.70;5.28;;;7.40;99.90;;;;;;5086203;28;20055;-88
2022/01/22 08:43:43;;;;;;;20.52;5.97;;;7.50;99.90;;;;;;5090259;28;20189;-85
2022/01/22 08:46:09;;;;;;;17.50;4.90;;;7.50;99.90;;;;;;5086616;28;20028;-85
2022/01/22 08:48:34;;;;;;;16.00;5.43;;;7.50;99.90;;;;;;5105454;28;20045;-86
2022/01/22 08:51:00;;;;;;;15.50;4.85;;;7.50;99.90;;;;;;5073317;28;20039;-87
2022/01/22 08:53:26;;;;;;;15.43;4.82;;;7.50;99.90;;;;;;5072959;28;20035;-86
2022/01/22 08:55:52;;;;;;;13.45;4.28;;;7.50;99.90;;;;;;5073597;28;20024;-87
2022/01/22 08:58:18;;;;;;;19.25;4.32;;;7.50;99.90;;;;;;5091360;28;20034;-85
2022/01/22 09:00:45;;;;;;;13.95;4.03;;;7.50;99.90;;;;;;5089895;28;20027;-85
2022/01/22 09:03:13;;;;;;;11.85;4.03;;;7.50;99.90;;;;;;5073919;28;20035;-86
2022/01/22 09:05:39;;;;;;;13.82;5.80;;;7.50;99.90;;;;;;5073367;28;20026;-86
2022/01/22 09:08:05;;;;;;;14.13;3.97;;;7.60;99.90;;;;;;5073474;28;20080;-86
2022/01/22 09:10:31;;;;;;;15.52;4.10;;;7.50;99.90;;;;;;5073660;28;20085;-86
2022/01/22 09:12:57;;;;;;;20.35;4.18;;;7.60;99.90;;;;;;5108331;28;20460;-85
2022/01/22 09:15:22;;;;;;;13.85;4.47;;;7.60;99.90;;;;;;5073703;28;20035;-87
2022/01/22 09:17:49;;;;;;;15.15;3.80;;;7.60;99.90;;;;;;5108845;28;20081;-84
2022/01/22 09:20:31;;;;;;;12.57;4.43;;;7.60;99.90;;;;;;5087096;28;20024;-85
2022/01/22 09:22:58;;;;;;;14.60;3.80;;;7.60;99.90;;;;;;5082877;28;20115;-87
2022/01/22 09:25:23;;;;;;;21.63;5.35;;;7.60;99.90;;;;;;5091464;28;20031;-86
2022/01/22 09:27:49;;;;;;;14.63;4.13;;;7.60;99.90;;;;;;5077134;28;20028;-85
2022/01/22 09:30:15;;;;;;;9.35;3.35;;;7.60;99.90;;;;;;5072998;28;20058;-87
2022/01/22 09:32:41;;;;;;;14.70;3.10;;;7.60;99.90;;;;;;5093515;28;20100;-89
2022/01/22 09:35:07;;;;;;;9.27;3.67;;;7.60;99.90;;;;;;5058803;28;20468;-88
2022/01/22 09:37:34;;;;;;;10.50;3.45;;;7.60;99.90;;;;;;5071298;28;20020;-88
2022/01/22 09:40:03;;;;;;;13.25;4.28;;;7.60;99.90;;;;;;5060885;28;20190;-85
2022/01/22 09:42:29;;;;;;;12.63;3.28;;;7.60;99.90;;;;;;5060048;28;20031;-86
2022/01/22 09:44:54;;;;;;;11.20;3.53;;;7.60;99.90;;;;;;5060099;28;20032;-86
2022/01/22 09:47:21;;;;;;;16.58;4.15;;;7.60;99.90;;;;;;5068508;28;20020;-86
2022/01/22 09:49:48;;;;;;;14.93;4.18;;;7.70;99.90;;;;;;5091068;28;20028;-87
2022/01/22 09:52:14;;;;;;;10.13;3.70;;;7.70;99.90;;;;;;5058519;28;20472;-87
2022/01/22 09:54:40;;;;;;;14.30;4.43;;;7.70;99.90;;;;;;5072408;28;20075;-87
2022/01/22 09:57:08;;;;;;;10.15;4.00;;;7.70;99.90;;;;;;5071834;28;20179;-86
2022/01/22 09:59:34;;;;;;;10.85;4.13;;;7.70;99.90;;;;;;5069453;28;20054;-86
2022/01/22 10:02:10;;;;;;;13.27;4.13;;;7.70;99.90;;;;;;5059721;28;20364;-87
2022/01/22 10:04:38;;;;;;;12.88;4.35;;;7.70;99.90;;;;;;5076665;28;20024;-88
2022/01/22 10:07:04;;;;;;;12.20;3.85;;;7.70;99.90;;;;;;5090956;28;20020;-86
2022/01/22 10:09:46;;;;;;;18.23;4.78;;;7.70;99.90;;;;;;5095174;28;20048;-86
2022/01/22 10:12:16;;;;;;;12.20;4.05;;;7.70;99.90;;;;;;5058092;28;20087;-86
2022/01/22 10:15:05;;;;;;;12.23;3.80;;;7.70;99.90;;;;;;5053660;28;20025;-87
2022/01/22 10:17:43;;;;;;;20.00;4.05;;;7.70;99.90;;;;;;5062135;28;20025;-89
2022/01/22 10:20:27;;;;;;;15.63;4.13;;;7.70;99.90;;;;;;5068287;28;20021;-88
2022/01/22 10:23:22;;;;;;;16.25;5.05;;;7.70;99.90;;;;;;5062502;28;20032;-86
2022/01/22 10:25:56;;;;;;;11.40;4.10;;;7.70;99.90;;;;;;5064022;28;20045;-88
2022/01/22 10:28:25;;;;;;;11.18;3.55;;;7.70;99.90;;;;;;5070781;28;20070;-87
2022/01/22 10:31:00;;;;;;;11.27;3.92;;;7.70;99.90;;;;;;5071381;28;20040;-87
2022/01/22 10:33:35;;;;;;;11.55;3.67;;;7.70;99.90;;;;;;5072517;28;20109;-87
2022/01/22 10:36:08;;;;;;;12.13;4.88;;;7.70;99.90;;;;;;5068509;28;20025;-88
2022/01/22 10:38:38;;;;;;;10.75;3.70;;;7.70;99.90;;;;;;5073417;28;20020;-89
2022/01/22 10:41:06;;;;;;;12.20;4.30;;;7.80;99.90;;;;;;5063605;28;20028;-86
2022/01/22 10:43:33;;;;;;;13.07;4.18;;;7.80;99.90;;;;;;5071816;28;20032;-89
2022/01/22 10:46:20;;;;;;;10.40;3.85;;;7.80;99.90;;;;;;5039810;28;20063;-87
2022/01/22 10:49:04;;;;;;;13.90;3.80;;;7.80;99.90;;;;;;5063823;28;20114;-88
2022/01/22 10:51:42;;;;;;;12.95;3.97;;;7.80;99.90;;;;;;5068547;28;20029;-87
2022/01/22 10:54:10;;;;;;;10.25;3.85;;;7.80;99.90;;;;;;5070328;28;20028;-87
2022/01/22 10:56:39;;;;;;;13.55;3.90;;;7.80;99.90;;;;;;5072076;28;20021;-89
2022/01/22 10:59:07;;;;;;;11.00;3.72;;;7.80;99.90;;;;;;5066674;28;20090;-88
2022/01/22 11:01:56;;;;;;;12.10;3.75;;;7.80;99.90;;;;;;5068033;28;20029;-88
2022/01/22 11:04:28;;;;;;;13.50;4.20;;;7.90;99.90;;;;;;5065798;28;20075;-87
2022/01/22 11:06:56;;;;;;;11.15;4.30;;;7.80;99.90;;;;;;5068221;28;20032;-88
2022/01/22 11:09:24;;;;;;;13.30;4.25;;;7.90;99.90;;;;;;5068165;28;20032;-88
2022/01/22 11:11:51;;;;;;;13.98;5.18;;;7.80;99.90;;;;;;5065511;28;20032;-88
2022/01/22 11:14:18;;;;;;;12.65;5.10;;;7.90;99.90;;;;;;5074160;28;20028;-88
2022/01/22 11:16:46;;;;;;;10.35;4.53;;;7.90;99.90;;;;;;5056934;28;20536;-89
2022/01/22 11:19:18;;;;;;;13.55;4.75;;;7.90;99.90;;;;;;5092812;28;20042;-89
2022/01/22 11:21:47;;;;;;;12.32;5.00;;;7.90;99.90;;;;;;5074820;28;20060;-89
2022/01/22 11:24:16;;;;;;;13.45;4.57;;;7.90;99.90;;;;;;5074517;28;20019;-88
2022/01/22 11:26:46;;;;;;;13.18;4.70;;;8.00;99.90;;;;;;5091964;28;20058;-89
2022/01/22 11:29:14;;;;;;;15.25;4.40;;;7.90;99.90;;;;;;5091781;28;20016;-89
2022/01/22 11:31:42;;;;;;;15.73;5.22;;;8.00;99.90;;;;;;5065766;28;20040;-88
2022/01/22 11:34:08;;;;;;;13.00;5.00;;;8.00;99.90;;;;;;5054180;28;20032;-88
2022/01/22 11:36:47;;;;;;;11.57;5.15;;;8.00;99.90;;;;;;5056560;28;20024;-90
2022/01/22 11:39:21;;;;;;;18.88;6.13;;;8.00;99.90;;;;;;5060295;28;20025;-88
2022/01/22 11:41:55;;;;;;;13.15;5.88;;;8.00;99.90;;;;;;5064405;28;20399;-88
2022/01/22 11:45:00;;;;;;;10.77;5.60;;;8.00;99.90;;;;;;5072515;28;20020;-88
2022/01/22 11:47:26;;;;;;;10.80;5.50;;;8.00;99.90;;;;;;5071471;28;20055;-88
2022/01/22 11:50:10;;;;;;;13.25;5.20;;;8.00;99.90;;;;;;5052147;28;20146;-88
2022/01/22 11:52:41;;;;;;;15.60;6.32;;;8.00;99.90;;;;;;5074155;28;20399;-89
2022/01/22 11:55:11;;;;;;;14.70;5.65;;;8.00;99.90;;;;;;5073855;28;20115;-92
2022/01/22 11:57:38;;;;;;;13.88;5.43;;;8.00;99.90;;;;;;5069686;28;20028;-88
2022/01/22 12:00:24;;;;;;;13.63;5.90;;;8.00;99.90;;;;;;5073369;28;20032;-89
2022/01/22 12:03:13;;;;;;;16.42;5.60;;;8.00;99.90;;;;;;5074350;28;20028;-88
2022/01/22 12:05:54;;;;;;;9.05;5.00;;;8.00;99.90;;;;;;5074687;28;20035;-89
2022/01/22 12:08:21;;;;;;;12.05;5.25;;;8.10;99.90;;;;;;5071956;28;20024;-88
2022/01/22 12:16:13;;;;;;;11.88;5.32;;;8.10;99.90;;;;;;5087212;28;20069;-89
2022/01/22 12:18:46;;;;;;;12.10;4.65;;;8.10;99.90;;;;;;5056973;28;20032;-89
2022/01/22 12:21:39;;;;;;;7.88;4.13;;;8.10;99.90;;;;;;5063590;28;20491;-87
2022/01/22 12:24:10;;;;;;;13.48;4.53;;;8.10;99.90;;;;;;5053537;28;20500;-89
2022/01/22 12:26:38;;;;;;;8.07;4.03;;;8.20;99.90;;;;;;5070521;28;20380;-88
2022/01/22 12:29:41;;;;;;;10.88;4.30;;;8.20;99.90;;;;;;5073344;28;20032;-88
2022/01/22 12:32:19;;;;;;;7.63;4.07;;;8.10;99.90;;;;;;4989990;28;20042;-88
2022/01/22 12:35:01;;;;;;;7.45;3.35;;;8.20;99.90;;;;;;5058632;28;20123;-87
2022/01/22 12:37:29;;;;;;;6.68;3.50;;;8.10;99.90;;;;;;5072378;28;20152;-88
2022/01/22 12:39:56;;;;;;;10.27;4.70;;;8.20;99.90;;;;;;5068412;28;20020;-92
2022/01/22 12:42:46;;;;;;;8.45;3.55;;;8.10;99.90;;;;;;5054257;28;20032;-89
2022/01/22 12:45:11;;;;;;;9.38;4.10;;;8.20;99.90;;;;;;5086711;28;20031;-89
2022/01/22 12:47:46;;;;;;;9.50;3.88;;;8.20;99.90;;;;;;5069587;28;20028;-94
2022/01/22 12:50:12;;;;;;;8.85;3.58;;;8.20;99.90;;;;;;5073166;28;20028;-90
2022/01/22 12:52:41;;;;;;;11.50;3.90;;;8.30;99.90;;;;;;5073117;28;20028;-89
2022/01/22 12:55:24;;;;;;;11.43;3.40;;;8.30;99.90;;;;;;5073291;28;20033;-89
2022/01/22 12:57:50;;;;;;;9.63;3.80;;;8.30;99.90;;;;;;5068334;28;20081;-89
2022/01/22 13:00:20;;;;;;;10.90;3.70;;;8.30;99.90;;;;;;5077864;28;20071;-93
2022/01/22 13:03:00;;;;;;;9.65;3.67;;;8.30;99.90;;;;;;5096899;28;20024;-93
2022/01/22 13:05:32;;;;;;;8.15;4.68;;;8.30;99.90;;;;;;5088280;28;20094;-91
2022/01/22 13:08:07;;;;;;;;;;;8.30;99.90;;;;;;5074504;28;20021;-93
2022/01/22 13:10:43;;;;;;;11.23;4.68;;;8.30;99.90;;;;;;5059051;28;19912;-91
2022/01/22 13:13:14;;;;;;;10.68;5.18;;;8.30;99.90;;;;;;5077219;28;20044;-92
2022/01/22 13:15:44;;;;;;;10.80;5.68;;;8.30;99.90;;;;;;5073671;28;20024;-93
2022/01/22 13:18:20;;;;;;;11.48;5.95;;;8.30;99.90;;;;;;5078865;28;20032;-94
2022/01/22 13:21:18;;;;;;;11.20;6.78;;;8.30;99.90;;;;;;5076313;28;20028;-91
2022/01/22 13:23:46;;;;;;;12.80;6.35;;;8.30;99.90;;;;;;5075334;28;20380;-90
2022/01/22 13:26:15;;;;;;;14.52;8.20;;;8.30;99.90;;;;;;5078895;28;20020;-90
2022/01/22 13:28:42;;;;;;;13.30;8.02;;;8.30;99.90;;;;;;5077829;28;20482;-89
2022/01/22 13:31:17;;;;;;;12.82;8.63;;;8.40;99.90;;;;;;5078860;28;20031;-89
2022/01/22 13:33:58;;;;;;;16.13;8.27;;;8.30;99.90;;;;;;5071147;28;20036;-87
2022/01/22 13:39:22;;;;;;;16.60;9.32;;;8.30;99.90;;;;;;5077510;28;20075;-88
2022/01/22 13:45:07;;;;;;;16.35;9.07;;;8.30;99.90;;;;;;5075849;28;20089;-88
2022/01/22 13:47:48;;;;;;;30.73;11.15;;;8.30;99.90;;;;;;5077092;28;20012;-87
2022/01/22 13:50:16;;;;;;;18.40;8.85;;;8.30;99.90;;;;;;5061453;28;20499;-87
2022/01/22 13:52:43;;;;;;;13.20;8.07;;;8.30;99.90;;;;;;5094069;28;20024;-88
2022/01/22 13:55:12;;;;;;;32.67;8.27;;;8.30;99.90;;;;;;5093982;28;20020;-89
2022/01/22 13:57:38;;;;;;;13.23;6.97;;;8.30;99.90;;;;;;5076602;28;20024;-87
2022/01/22 14:00:14;;;;;;;12.90;6.85;;;8.30;99.90;;;;;;5075938;28;20026;-88
2022/01/22 14:03:03;;;;;;;17.70;6.30;;;8.30;99.90;;;;;;5071293;28;20448;-88
2022/01/22 14:05:29;;;;;;;15.05;7.00;;;8.40;99.90;;;;;;5072243;28;20020;-87
2022/01/22 14:08:07;;;;;;;18.10;6.78;;;8.40;99.90;;;;;;5070444;28;20025;-87
2022/01/22 14:10:34;;;;;;;17.52;6.68;;;8.30;99.90;;;;;;5076620;28;20027;-87
2022/01/22 14:13:09;;;;;;;12.63;5.70;;;8.40;99.90;;;;;;5074018;28;20460;-86
2022/01/22 14:15:43;;;;;;;10.32;5.38;;;8.40;99.90;;;;;;5057273;28;20086;-87
2022/01/22 14:20:55;;;;;;;14.30;6.70;;;8.40;99.90;;;;;;5093575;28;20028;-87
2022/01/22 14:23:24;;;;;;;;;;;8.40;99.90;;;;;;5075222;28;20383;-86
2022/01/22 14:25:55;;;;;;;14.00;6.13;;;8.40;99.90;;;;;;5091298;28;19951;-86
2022/01/22 14:28:23;;;;;;;12.13;5.90;;;8.40;99.90;;;;;;5067616;28;20054;-86
2022/01/22 14:30:49;;;;;;;14.18;5.68;;;8.40;99.90;;;;;;5094624;28;20024;-85
2022/01/22 14:33:17;;;;;;;12.13;6.25;;;8.40;99.90;;;;;;5076374;28;20020;-86
2022/01/22 14:35:58;;;;;;;9.93;5.72;;;8.40;99.90;;;;;;5094688;28;20028;-87
2022/01/22 14:38:24;;;;;;;13.43;6.07;;;8.40;99.90;;;;;;5075712;28;20051;-87
2022/01/22 14:46:27;;;;;;;12.10;5.90;;;8.40;99.90;;;;;;5088547;28;20452;-87
2022/01/22 14:48:52;;;;;;;12.90;6.20;;;8.40;99.90;;;;;;5073530;28;20123;-88